createdAt,value
2023-02-24T00:02:14.921Z,108.05
2023-02-24T00:04:41.795Z,89.78
2023-02-24T00:07:10.819Z,96.97
2023-02-24T00:09:40.837Z,102.85
2023-02-24T00:12:11.348Z,93.00
2023-02-24T00:14:40.910Z,106.93
2023-02-24T00:17:08.595Z,99.45
2023-02-24T00:19:36.482Z,101.90
2023-02-24T00:22:05.683Z,104.15
2023-02-24T00:24:33.185Z,111.78
2023-02-24T00:27:02.057Z,98.43
2023-02-24T00:29:30.044Z,109.75
2023-02-24T00:32:03.075Z,102.80
2023-02-24T00:34:31.843Z,101.55
2023-02-24T00:36:59.473Z,103.55
2023-02-24T00:39:32.172Z,107.72
2023-02-24T00:42:04.816Z,110.68
2023-02-24T00:44:37.219Z,107.32
2023-02-24T00:47:05.600Z,110.22
2023-02-24T00:49:32.912Z,107.47
2023-02-24T00:52:00.125Z,97.47
2023-02-24T00:54:28.330Z,103.70
2023-02-24T00:56:56.298Z,106.18
2023-02-24T00:59:24.361Z,107.13
2023-02-24T01:01:51.440Z,108.22
2023-02-24T01:04:20.129Z,107.63
2023-02-24T01:06:49.802Z,104.22
2023-02-24T01:09:19.292Z,110.22
2023-02-24T01:12:07.837Z,110.07
2023-02-24T01:14:35.930Z,106.70
2023-02-24T01:17:03.746Z,116.03
2023-02-24T01:19:32.244Z,113.53
2023-02-24T01:22:04.449Z,107.95
2023-02-24T01:24:34.251Z,106.47
2023-02-24T01:27:01.682Z,112.53
2023-02-24T01:29:28.696Z,109.72
2023-02-24T01:31:58.690Z,111.13
2023-02-24T01:34:29.022Z,113.22
2023-02-24T01:36:55.787Z,123.47
2023-02-24T01:39:22.758Z,117.00
2023-02-24T01:41:50.953Z,114.10
2023-02-24T01:44:18.151Z,116.13
2023-02-24T01:46:47.249Z,111.63
2023-02-24T01:49:22.523Z,110.72
2023-02-24T01:52:12.517Z,118.03
2023-02-24T01:54:46.177Z,106.25
2023-02-24T01:57:19.933Z,112.95
2023-02-24T01:59:49.135Z,111.82
2023-02-24T02:02:17.230Z,113.70
2023-02-24T02:04:57.230Z,114.40
2023-02-24T02:07:27.611Z,109.43
2023-02-24T02:09:57.181Z,124.80
2023-02-24T02:12:24.588Z,116.15
2023-02-24T02:14:54.795Z,117.32
2023-02-24T02:17:54.880Z,122.75
2023-02-24T02:21:05.077Z,117.70
2023-02-24T02:23:59.570Z,116.38
2023-02-24T02:26:47.499Z,120.22
2023-02-24T02:29:44.703Z,115.05
2023-02-24T02:32:34.401Z,114.85
2023-02-24T02:35:11.565Z,123.43
2023-02-24T02:37:49.571Z,119.65
2023-02-24T02:40:41.309Z,127.43
2023-02-24T02:43:38.292Z,122.00
2023-02-24T02:46:34.592Z,122.95
2023-02-24T02:49:16.905Z,115.80
2023-02-24T02:51:53.016Z,132.40
2023-02-24T02:54:38.074Z,125.63
2023-02-24T02:57:09.768Z,133.20
2023-02-24T02:59:44.998Z,124.78
2023-02-24T03:02:15.147Z,132.88
2023-02-24T03:04:51.408Z,133.32
2023-02-24T03:07:21.036Z,134.52
2023-02-24T03:09:55.872Z,137.27
2023-02-24T03:12:25.080Z,132.50
2023-02-24T03:14:58.971Z,137.65
2023-02-24T03:17:29.985Z,141.73
2023-02-24T03:20:24.606Z,141.82
2023-02-24T03:23:09.410Z,139.45
2023-02-24T03:25:46.689Z,137.15
2023-02-24T03:28:23.500Z,133.35
2023-02-24T03:31:03.609Z,136.95
2023-02-24T03:33:38.402Z,136.13
2023-02-24T03:36:05.747Z,145.20
2023-02-24T03:38:34.088Z,137.30
2023-02-24T03:41:01.070Z,146.60
2023-02-24T03:43:32.608Z,141.25
2023-02-24T03:46:01.329Z,142.80
2023-02-24T03:48:29.065Z,149.52
2023-02-24T03:50:56.218Z,144.05
2023-02-24T03:53:54.478Z,133.85
2023-02-24T03:56:29.173Z,148.10
2023-02-24T03:58:55.872Z,146.07
2023-02-24T04:01:22.784Z,140.77
2023-02-24T04:04:18.093Z,145.95
2023-02-24T04:06:56.517Z,147.93
2023-02-24T04:09:40.087Z,151.05
2023-02-24T04:12:09.434Z,148.40
2023-02-24T04:14:49.750Z,149.15
2023-02-24T04:17:38.013Z,141.60
2023-02-24T04:20:16.345Z,146.55
2023-02-24T04:22:49.333Z,143.30
2023-02-24T04:25:24.897Z,149.63
2023-02-24T04:27:54.519Z,141.35
2023-02-24T04:30:23.918Z,146.82
2023-02-24T04:32:50.784Z,143.18
2023-02-24T04:35:20.880Z,139.80
2023-02-24T04:37:49.080Z,155.02
2023-02-24T04:40:18.293Z,148.80
2023-02-24T04:42:48.891Z,147.98
2023-02-24T04:45:22.262Z,139.93
2023-02-24T04:47:51.295Z,149.38
2023-02-24T04:50:25.702Z,150.48
2023-02-24T04:52:57.737Z,153.95
2023-02-24T04:55:29.094Z,155.52
2023-02-24T04:57:56.994Z,153.65
2023-02-24T05:00:26.533Z,163.40
2023-02-24T05:02:58.585Z,155.02
2023-02-24T05:05:25.941Z,158.45
2023-02-24T05:07:55.298Z,159.85
2023-02-24T05:10:28.249Z,154.95
2023-02-24T05:12:58.267Z,153.00
2023-02-24T05:15:32.354Z,151.52
2023-02-24T05:18:07.712Z,158.18
2023-02-24T05:21:02.207Z,170.57
2023-02-24T05:23:34.992Z,172.70
2023-02-24T05:26:08.759Z,157.30
2023-02-24T05:28:40.604Z,172.35
2023-02-24T05:31:14.894Z,166.80
2023-02-24T05:33:46.127Z,157.95
2023-02-24T05:36:18.026Z,166.82
2023-02-24T05:38:49.493Z,159.38
2023-02-24T05:41:18.122Z,162.55
2023-02-24T05:43:48.189Z,163.57
2023-02-24T05:46:19.395Z,165.00
2023-02-24T05:48:51.416Z,159.20
2023-02-24T05:51:18.351Z,159.23
2023-02-24T05:53:45.537Z,155.68
2023-02-24T05:56:12.418Z,165.88
2023-02-24T05:58:39.380Z,170.88
2023-02-24T06:01:16.750Z,174.93
2023-02-24T06:03:47.721Z,165.85
2023-02-24T06:06:16.547Z,160.65
2023-02-24T06:08:49.623Z,165.52
2023-02-24T06:11:19.220Z,167.32
2023-02-24T06:13:49.266Z,162.98
2023-02-24T06:16:18.465Z,153.75
2023-02-24T06:18:49.323Z,177.75
2023-02-24T06:21:16.380Z,166.55
2023-02-24T06:23:43.200Z,162.35
2023-02-24T06:26:19.317Z,161.98
2023-02-24T06:28:48.005Z,162.23
2023-02-24T06:31:15.096Z,163.73
2023-02-24T06:33:42.113Z,161.13
2023-02-24T06:36:09.074Z,171.65
2023-02-24T06:38:37.009Z,163.23
2023-02-24T06:41:11.061Z,159.65
2023-02-24T06:43:39.020Z,156.80
2023-02-24T06:46:09.590Z,167.55
2023-02-24T06:48:38.189Z,166.45
2023-02-24T06:51:10.663Z,170.50
2023-02-24T06:53:43.258Z,164.48
2023-02-24T06:56:15.337Z,163.43
2023-02-24T06:58:45.018Z,159.52
2023-02-24T07:01:13.876Z,165.77
2023-02-24T07:04:03.416Z,162.38
2023-02-24T07:06:34.375Z,158.00
2023-02-24T07:09:07.286Z,155.43
2023-02-24T07:11:35.424Z,172.50
2023-02-24T07:14:05.824Z,160.45
2023-02-24T07:16:34.708Z,158.18
2023-02-24T07:19:04.875Z,156.93
2023-02-24T07:21:39.828Z,153.55
2023-02-24T07:24:13.380Z,143.10
2023-02-24T07:26:42.031Z,139.98
2023-02-24T07:29:11.444Z,152.18
2023-02-24T07:31:39.578Z,151.10
2023-02-24T07:34:06.818Z,146.70
2023-02-24T07:36:42.382Z,153.63
2023-02-24T07:41:37.014Z,155.00
2023-02-24T07:44:05.823Z,158.68
2023-02-24T07:46:33.433Z,150.75
2023-02-24T07:49:00.287Z,155.77
2023-02-24T07:51:27.981Z,154.77
2023-02-24T07:53:58.917Z,155.20
2023-02-24T07:56:28.358Z,146.98
2023-02-24T07:59:02.882Z,140.93
2023-02-24T08:01:38.876Z,147.60
2023-02-24T08:04:08.392Z,144.02
2023-02-24T08:06:38.147Z,144.90
2023-02-24T08:09:30.073Z,145.50
2023-02-24T08:11:57.073Z,146.73
2023-02-24T08:14:33.004Z,148.95
2023-02-24T08:16:59.786Z,155.52
2023-02-24T08:19:32.855Z,149.77
2023-02-24T08:22:19.450Z,151.57
2023-02-24T08:24:52.710Z,145.60
2023-02-24T08:27:21.830Z,152.00
2023-02-24T08:30:00.008Z,149.48
2023-02-24T08:32:44.964Z,161.88
2023-02-24T08:35:15.231Z,156.02
2023-02-24T08:37:47.680Z,151.65
2023-02-24T08:40:37.992Z,147.18
2023-02-24T08:43:16.543Z,147.98
2023-02-24T08:45:56.554Z,159.82
2023-02-24T08:48:32.559Z,156.73
2023-02-24T08:51:04.516Z,153.68
2023-02-24T08:53:34.152Z,151.93
2023-02-24T08:56:09.642Z,162.55
2023-02-24T09:01:20.746Z,151.88
2023-02-24T09:03:49.774Z,150.93
2023-02-24T09:06:25.312Z,144.60
2023-02-24T09:11:49.370Z,136.95
2023-02-24T09:14:27.053Z,143.93
2023-02-24T09:17:14.995Z,136.50
2023-02-24T09:19:47.200Z,132.35
2023-02-24T09:22:31.522Z,140.38
2023-02-24T09:25:18.265Z,138.35
2023-02-24T09:28:09.457Z,150.70
2023-02-24T09:30:51.264Z,140.93
2023-02-24T09:33:22.183Z,140.70
2023-02-24T09:36:12.794Z,142.57
2023-02-24T09:38:59.336Z,141.82
2023-02-24T09:41:33.018Z,143.52
2023-02-24T09:44:44.546Z,139.43
2023-02-24T09:47:19.989Z,144.40
2023-02-24T09:49:59.056Z,141.73
2023-02-24T09:52:43.510Z,139.43
2023-02-24T09:55:35.641Z,135.13
2023-02-24T09:58:18.249Z,125.38
2023-02-24T10:01:22.743Z,122.05
2023-02-24T10:04:18.708Z,128.65
2023-02-24T10:07:07.565Z,133.63
2023-02-24T10:09:50.620Z,127.78
2023-02-24T10:12:25.484Z,129.57
2023-02-24T10:15:17.120Z,133.60
2023-02-24T10:18:06.674Z,123.70
2023-02-24T10:20:40.824Z,122.63
2023-02-24T10:23:29.593Z,125.03
2023-02-24T10:26:21.972Z,132.63
2023-02-24T10:28:57.331Z,128.27
2023-02-24T10:31:48.428Z,130.70
2023-02-24T10:34:26.403Z,123.57
2023-02-24T10:36:53.649Z,122.03
2023-02-24T10:39:25.434Z,125.32
2023-02-24T10:41:58.560Z,120.22
2023-02-24T10:44:35.941Z,121.05
2023-02-24T10:47:13.803Z,118.10
2023-02-24T10:49:58.862Z,113.05
2023-02-24T10:52:50.391Z,111.13
2023-02-24T10:55:39.226Z,110.10
2023-02-24T10:58:07.485Z,113.63
2023-02-24T11:01:18.246Z,112.43
2023-02-24T11:04:02.669Z,113.43
2023-02-24T11:06:40.590Z,117.45
2023-02-24T11:09:28.065Z,115.70
2023-02-24T11:12:23.314Z,113.13
2023-02-24T11:15:14.336Z,120.10
2023-02-24T11:17:56.810Z,122.88
2023-02-24T11:20:49.593Z,118.63
2023-02-24T11:23:27.327Z,115.88
2023-02-24T11:26:00.870Z,113.35
2023-02-24T11:28:50.322Z,109.53
2023-02-24T11:31:53.703Z,111.55
2023-02-24T11:34:49.351Z,116.50
2023-02-24T11:37:20.631Z,114.85
2023-02-24T11:40:18.735Z,108.05
2023-02-24T11:42:59.374Z,113.18
2023-02-24T11:45:52.334Z,111.95
2023-02-24T11:48:24.289Z,104.82
2023-02-24T11:50:59.460Z,118.80
2023-02-24T11:53:32.428Z,109.43
2023-02-24T11:56:11.096Z,109.70
2023-02-24T11:58:41.884Z,108.85
2023-02-24T12:01:17.378Z,114.22
2023-02-24T12:06:27.536Z,109.32
2023-02-24T12:09:00.982Z,102.60
2023-02-24T12:11:42.902Z,103.10
2023-02-24T12:14:15.459Z,108.93
2023-02-24T12:16:46.127Z,103.88
2023-02-24T12:19:23.860Z,103.00
2023-02-24T12:22:03.054Z,101.65
2023-02-24T12:24:29.858Z,111.30
2023-02-24T12:27:03.199Z,102.22
2023-02-24T12:29:32.725Z,107.63
2023-02-24T12:32:17.702Z,99.85
2023-02-24T12:35:06.777Z,106.60
2023-02-24T12:37:54.648Z,101.85
2023-02-24T12:40:39.089Z,102.90
2023-02-24T12:43:17.895Z,102.93
2023-02-24T12:46:29.329Z,101.38
2023-02-24T12:49:20.177Z,96.15
2023-02-24T12:52:03.743Z,95.50
2023-02-24T12:54:46.314Z,97.10
2023-02-24T12:57:48.268Z,98.15
2023-02-24T13:00:25.446Z,99.82
2023-02-24T13:03:13.009Z,99.07
2023-02-24T13:05:51.705Z,92.63
2023-02-24T13:08:39.294Z,96.10
2023-02-24T13:11:19.640Z,95.90
2023-02-24T13:13:53.517Z,93.82
2023-02-24T13:16:31.181Z,99.78
2023-02-24T13:19:18.997Z,93.40
2023-02-24T13:22:06.549Z,94.10
2023-02-24T13:24:34.678Z,94.13
2023-02-24T13:27:14.728Z,97.90
2023-02-24T13:29:57.767Z,95.22
2023-02-24T13:32:35.373Z,98.13
2023-02-24T13:35:07.270Z,84.85
2023-02-24T13:37:39.176Z,97.40
2023-02-24T13:40:17.943Z,100.47
2023-02-24T13:42:56.323Z,99.13
2023-02-24T13:45:26.011Z,95.05
2023-02-24T13:48:16.985Z,93.05
2023-02-24T13:51:11.978Z,86.95
2023-02-24T13:53:47.196Z,94.82
2023-02-24T13:56:37.445Z,95.88
2023-02-24T13:59:41.047Z,104.95
2023-02-24T14:02:11.137Z,96.55
2023-02-24T14:04:55.362Z,98.03
2023-02-24T14:07:35.768Z,86.20
2023-02-24T14:10:30.269Z,91.30
2023-02-24T14:13:04.832Z,101.28
2023-02-24T14:15:33.194Z,93.20
2023-02-24T14:18:05.655Z,84.95
2023-02-24T14:20:37.931Z,90.28
2023-02-24T14:23:20.108Z,96.18
2023-02-24T14:25:47.010Z,84.90
2023-02-24T14:28:21.439Z,91.43
2023-02-24T14:30:54.388Z,89.88
2023-02-24T14:33:42.491Z,87.65
2023-02-24T14:36:20.591Z,81.10
2023-02-24T14:38:47.779Z,80.88
2023-02-24T14:41:22.452Z,91.88
2023-02-24T14:43:49.721Z,78.77
2023-02-24T14:46:16.588Z,83.25
2023-02-24T14:48:44.691Z,90.20
2023-02-24T14:51:20.687Z,87.70
2023-02-24T14:53:56.363Z,97.43
2023-02-24T14:56:31.273Z,97.18
2023-02-24T14:59:17.012Z,89.15
2023-02-24T15:01:48.475Z,92.32
2023-02-24T15:04:34.679Z,94.82
2023-02-24T15:07:05.062Z,96.57
2023-02-24T15:09:41.334Z,86.82
2023-02-24T15:12:11.912Z,96.32
2023-02-24T15:14:40.832Z,90.35
2023-02-24T15:17:16.329Z,94.68
2023-02-24T15:19:46.816Z,90.90
2023-02-24T15:22:22.509Z,94.18
2023-02-24T15:24:50.671Z,99.47
2023-02-24T15:27:17.328Z,93.97
2023-02-24T15:29:56.278Z,94.88
2023-02-24T15:32:26.067Z,95.43
2023-02-24T15:34:53.035Z,94.75
2023-02-24T15:37:41.642Z,97.72
2023-02-24T15:40:21.710Z,91.85
2023-02-24T15:43:09.193Z,94.70
2023-02-24T15:45:38.603Z,95.88
2023-02-24T15:48:22.957Z,101.75
2023-02-24T15:50:52.480Z,99.90
2023-02-24T15:53:19.341Z,90.15
2023-02-24T15:55:46.385Z,92.68
2023-02-24T15:58:18.223Z,74.40
2023-02-24T16:00:45.589Z,80.30
2023-02-24T16:03:13.213Z,66.40
2023-02-24T16:05:40.041Z,73.97
2023-02-24T16:08:13.560Z,70.82
2023-02-24T16:10:40.623Z,71.55
2023-02-24T16:13:16.413Z,73.13
2023-02-24T16:15:45.336Z,72.25
2023-02-24T16:18:22.231Z,74.60
2023-02-24T16:20:57.005Z,75.10
2023-02-24T16:23:25.966Z,79.75
2023-02-24T16:25:57.823Z,70.22
2023-02-24T16:28:25.268Z,81.85
2023-02-24T16:30:52.660Z,69.88
2023-02-24T16:33:24.252Z,79.40
2023-02-24T16:35:53.352Z,80.15
2023-02-24T16:38:21.923Z,79.00
2023-02-24T16:40:50.126Z,75.45
2023-02-24T16:43:17.096Z,71.93
2023-02-24T16:45:45.174Z,72.80
2023-02-24T16:48:25.085Z,79.25
2023-02-24T16:50:51.972Z,76.00
2023-02-24T16:53:20.880Z,80.35
2023-02-24T16:55:47.984Z,84.10
2023-02-24T16:58:15.396Z,79.00
2023-02-24T17:00:45.778Z,78.25
2023-02-24T17:03:20.876Z,79.82
2023-02-24T17:05:48.090Z,79.05
2023-02-24T17:08:15.391Z,86.47
2023-02-24T17:10:43.864Z,87.60
2023-02-24T17:13:15.565Z,82.72
2023-02-24T17:15:42.308Z,83.38
2023-02-24T17:18:09.603Z,84.00
2023-02-24T17:20:38.146Z,90.68
2023-02-24T17:23:05.120Z,91.65
2023-02-24T17:25:32.963Z,87.07
2023-02-24T17:28:00.128Z,94.15
2023-02-24T17:30:33.564Z,78.15
2023-02-24T17:33:01.166Z,81.53
2023-02-24T17:35:28.727Z,75.15
2023-02-24T17:37:55.881Z,80.00
2023-02-24T17:40:23.566Z,80.72
2023-02-24T17:42:51.216Z,81.05
2023-02-24T17:45:19.222Z,89.32
2023-02-24T17:47:45.996Z,82.13
2023-02-24T17:50:13.317Z,91.18
2023-02-24T17:52:40.648Z,87.78
2023-02-24T17:55:08.449Z,83.15
2023-02-24T17:57:35.875Z,77.90
2023-02-24T18:00:04.571Z,75.72
2023-02-24T18:02:31.547Z,73.55
2023-02-24T18:04:58.369Z,70.72
2023-02-24T18:07:27.849Z,70.40
2023-02-24T18:09:54.526Z,67.60
2023-02-24T18:12:21.344Z,69.22
2023-02-24T18:14:56.153Z,69.93
2023-02-24T18:17:29.803Z,71.18
2023-02-24T18:19:56.627Z,69.18
2023-02-24T18:22:23.458Z,68.55
2023-02-24T18:24:50.859Z,63.90
2023-02-24T18:27:18.189Z,67.15
2023-02-24T18:29:45.052Z,67.65
2023-02-24T18:32:11.960Z,68.60
2023-02-24T18:34:38.978Z,68.72
2023-02-24T18:37:05.682Z,63.83
2023-02-24T18:39:32.391Z,71.28
2023-02-24T18:41:59.657Z,62.63
2023-02-24T18:44:27.417Z,63.40
2023-02-24T18:46:54.155Z,69.15
2023-02-24T18:49:21.037Z,59.58
2023-02-24T18:51:48.890Z,66.05
2023-02-24T18:54:16.358Z,62.95
2023-02-24T18:56:43.436Z,62.40
2023-02-24T18:59:10.330Z,60.53
2023-02-24T19:01:40.427Z,63.13
2023-02-24T19:04:08.401Z,62.55
2023-02-24T19:06:36.485Z,64.78
2023-02-24T19:09:10.407Z,61.40
2023-02-24T19:11:38.298Z,64.47
2023-02-24T19:14:05.473Z,58.97
2023-02-24T19:16:33.016Z,59.05
2023-02-24T19:19:00.221Z,64.35
2023-02-24T19:21:29.259Z,64.05
2023-02-24T19:23:56.607Z,58.88
2023-02-24T19:26:25.850Z,69.18
2023-02-24T19:28:53.203Z,71.93
2023-02-24T19:31:22.648Z,70.93
2023-02-24T19:33:57.180Z,72.88
2023-02-24T19:36:24.852Z,82.07
2023-02-24T19:38:52.378Z,81.00
2023-02-24T19:41:19.396Z,80.03
2023-02-24T19:43:46.154Z,81.57
2023-02-24T19:46:15.703Z,82.13
2023-02-24T19:48:42.489Z,79.10
2023-02-24T19:51:10.288Z,81.13
2023-02-24T19:53:37.131Z,83.75
2023-02-24T19:56:04.438Z,73.88
2023-02-24T19:58:31.537Z,72.63
2023-02-24T20:01:05.768Z,75.78
2023-02-24T20:03:32.792Z,79.25
2023-02-24T20:05:59.585Z,81.05
2023-02-24T20:08:26.300Z,76.40
2023-02-24T20:11:04.651Z,83.18
2023-02-24T20:13:31.975Z,80.28
2023-02-24T20:16:11.587Z,78.10
2023-02-24T20:18:39.069Z,80.57
2023-02-24T20:21:06.006Z,78.75
2023-02-24T20:23:33.685Z,83.10
2023-02-24T20:26:01.688Z,81.00
2023-02-24T20:28:29.491Z,82.88
2023-02-24T20:30:58.083Z,86.93
2023-02-24T20:33:25.573Z,83.00
2023-02-24T20:35:52.292Z,81.28
2023-02-24T20:38:19.285Z,85.57
2023-02-24T20:40:46.065Z,84.18
2023-02-24T20:43:12.818Z,87.38
2023-02-24T20:45:40.937Z,89.65
2023-02-24T20:48:08.834Z,87.95
2023-02-24T20:50:35.992Z,84.68
2023-02-24T20:53:04.462Z,86.50
2023-02-24T20:55:31.221Z,79.03
2023-02-24T20:57:57.970Z,88.95
2023-02-24T21:00:25.007Z,85.32
2023-02-24T21:02:52.161Z,84.15
2023-02-24T21:05:25.680Z,88.78
2023-02-24T21:07:53.207Z,82.75
2023-02-24T21:10:25.075Z,76.38
2023-02-24T21:12:52.672Z,85.15
2023-02-24T21:15:19.958Z,91.03
2023-02-24T21:17:46.750Z,82.18
2023-02-24T21:20:14.259Z,78.97
2023-02-24T21:22:42.037Z,86.55
2023-02-24T21:25:12.743Z,85.97
2023-02-24T21:27:39.907Z,84.57
2023-02-24T21:30:08.368Z,83.93
2023-02-24T21:32:35.574Z,95.13
2023-02-24T21:35:02.978Z,95.75
2023-02-24T21:37:30.365Z,102.93
2023-02-24T21:39:57.020Z,100.82
2023-02-24T21:42:23.887Z,99.57
2023-02-24T21:44:51.090Z,115.70
2023-02-24T21:47:18.648Z,103.68
2023-02-24T21:49:46.330Z,114.43
2023-02-24T21:52:13.236Z,120.38
2023-02-24T21:54:42.271Z,112.68
2023-02-24T21:57:09.083Z,118.20
2023-02-24T21:59:35.861Z,121.57
2023-02-24T22:02:02.656Z,112.10
2023-02-24T22:04:29.522Z,111.38
2023-02-24T22:06:56.184Z,118.40
2023-02-24T22:09:22.947Z,115.10
2023-02-24T22:11:50.218Z,109.55
2023-02-24T22:14:17.655Z,120.22
2023-02-24T22:16:44.983Z,126.10
2023-02-24T22:19:12.141Z,119.53
2023-02-24T22:21:42.060Z,123.10
2023-02-24T22:24:12.418Z,123.32
2023-02-24T22:26:40.126Z,120.30
2023-02-24T22:29:07.557Z,123.13
2023-02-24T22:31:36.754Z,125.70
2023-02-24T22:34:04.537Z,124.03
2023-02-24T22:36:33.941Z,118.53
2023-02-24T22:39:02.207Z,120.35
2023-02-24T22:41:31.465Z,123.20
2023-02-24T22:43:59.346Z,117.85
2023-02-24T22:46:32.022Z,116.97
2023-02-24T22:48:59.160Z,106.13
2023-02-24T22:51:26.657Z,113.13
2023-02-24T22:53:54.098Z,106.80
2023-02-24T22:56:24.443Z,122.07
2023-02-24T22:58:51.742Z,113.00
2023-02-24T23:01:23.046Z,109.18
2023-02-24T23:03:50.043Z,115.47
2023-02-24T23:06:20.376Z,102.90
2023-02-24T23:08:49.429Z,100.68
2023-02-24T23:11:27.641Z,101.90
2023-02-24T23:13:55.885Z,98.60
2023-02-24T23:16:27.401Z,91.45
2023-02-24T23:18:56.247Z,92.35
2023-02-24T23:21:27.126Z,92.88
2023-02-24T23:23:58.509Z,91.10
2023-02-24T23:26:30.660Z,86.28
2023-02-24T23:28:57.358Z,79.60
2023-02-24T23:31:24.563Z,81.25
2023-02-24T23:33:52.856Z,80.00
2023-02-24T23:36:19.529Z,79.07
2023-02-24T23:38:46.665Z,83.18
2023-02-24T23:41:13.508Z,76.90
2023-02-24T23:43:40.463Z,82.88
2023-02-24T23:46:10.054Z,79.30
2023-02-24T23:48:37.504Z,88.03
2023-02-24T23:51:12.572Z,83.93
2023-02-24T23:53:42.103Z,75.63
2023-02-24T23:56:18.671Z,81.13
2023-02-24T23:58:49.157Z,80.72
